Time;durP1;ratioP1;P1;durP2;ratioP2;P2;SDS_P1;SDS_P2;PMS_P1;PMS_P2;Temp;Humidity;BMP_temperature;BMP_pressure;BME280_temperature;BME280_humidity;BME280_pressure;Samples;Min_cycle;Max_cycle;Signal;HPM_P1;HPM_P2
2021/10/14 00:01:33;;;;;;;55.92;30.60;;;2.60;99.90;;;;;;5072691;28;20020;-77
2021/10/14 00:03:59;;;;;;;209.70;49.55;;;2.60;99.90;;;;;;5071118;28;20020;-78
2021/10/14 00:06:25;;;;;;;79.60;31.98;;;2.50;99.90;;;;;;5071338;28;20031;-78
2021/10/14 00:08:50;;;;;;;89.78;34.22;;;2.30;99.90;;;;;;5072461;28;20115;-77
2021/10/14 00:11:16;;;;;;;100.20;33.50;;;2.30;99.90;;;;;;5072559;28;20104;-78
2021/10/14 00:13:42;;;;;;;60.10;29.80;;;2.20;99.90;;;;;;5071237;28;20375;-78
2021/10/14 00:16:07;;;;;;;61.60;28.35;;;2.10;99.90;;;;;;5071528;28;20408;-78
2021/10/14 00:18:33;;;;;;;57.90;25.27;;;2.10;99.90;;;;;;5071119;28;20029;-77
2021/10/14 00:20:59;;;;;;;61.78;26.63;;;2.00;99.90;;;;;;5071138;28;20043;-78
2021/10/14 00:23:24;;;;;;;49.00;22.80;;;1.90;99.90;;;;;;5071096;28;20090;-77
2021/10/14 00:25:51;;;;;;;65.10;25.73;;;1.90;99.90;;;;;;5071181;28;20166;-77
2021/10/14 00:28:16;;;;;;;48.22;24.00;;;1.90;99.90;;;;;;5071163;28;20070;-77
2021/10/14 00:30:42;;;;;;;49.47;26.73;;;1.90;99.90;;;;;;5072402;28;20495;-77
2021/10/14 00:33:08;;;;;;;49.95;23.60;;;1.90;99.90;;;;;;5071019;28;20017;-77
2021/10/14 00:35:33;;;;;;;55.97;25.48;;;1.90;99.90;;;;;;5071052;28;20021;-77
2021/10/14 00:37:59;;;;;;;109.25;32.67;;;1.90;99.90;;;;;;5072195;28;20037;-78
2021/10/14 00:40:25;;;;;;;99.75;32.13;;;1.90;99.90;;;;;;5071030;28;20028;-78
2021/10/14 00:42:52;;;;;;;61.00;25.63;;;1.90;99.90;;;;;;5070985;28;20386;-78
2021/10/14 00:45:19;;;;;;;69.20;25.17;;;1.90;99.90;;;;;;5072312;28;20470;-78
2021/10/14 00:47:45;;;;;;;96.70;28.52;;;1.90;99.90;;;;;;5072181;28;20024;-78
2021/10/14 00:50:11;;;;;;;74.28;27.75;;;1.80;99.90;;;;;;5070853;28;20031;-78
2021/10/14 00:52:40;;;;;;;58.05;26.50;;;1.90;99.90;;;;;;5072135;28;20051;-77
2021/10/14 00:55:06;;;;;;;133.93;31.17;;;1.90;99.90;;;;;;5070761;28;20025;-77
2021/10/14 00:57:32;;;;;;;63.15;24.45;;;1.90;99.90;;;;;;5074293;28;20033;-78
2021/10/14 00:59:59;;;;;;;80.85;25.23;;;1.80;99.90;;;;;;5075673;28;20107;-77
2021/10/14 01:02:25;;;;;;;75.43;24.77;;;1.80;99.90;;;;;;5075689;28;20017;-78
2021/10/14 01:04:55;;;;;;;54.40;25.92;;;1.80;99.90;;;;;;5075378;28;20394;-78
2021/10/14 01:07:21;;;;;;;49.20;21.38;;;1.80;99.90;;;;;;5074295;28;20111;-78
2021/10/14 01:09:47;;;;;;;71.75;26.10;;;1.80;99.90;;;;;;5074108;28;20017;-78
2021/10/14 01:12:14;;;;;;;60.40;23.88;;;1.80;99.90;;;;;;5074209;28;20025;-78
2021/10/14 01:14:39;;;;;;;54.22;23.40;;;1.80;99.90;;;;;;5074085;28;20108;-78
2021/10/14 01:17:05;;;;;;;44.00;22.17;;;1.80;99.90;;;;;;5075226;28;20096;-78
2021/10/14 01:19:31;;;;;;;52.53;25.65;;;1.80;99.90;;;;;;5073844;28;20017;-78
2021/10/14 01:21:57;;;;;;;49.15;24.20;;;1.80;99.90;;;;;;5075257;28;20107;-78
2021/10/14 01:24:22;;;;;;;54.05;25.67;;;1.80;99.90;;;;;;5075579;28;20021;-80
2021/10/14 01:26:48;;;;;;;67.80;30.70;;;1.80;99.90;;;;;;5073846;28;20019;-78
2021/10/14 01:29:15;;;;;;;64.18;29.55;;;1.80;99.90;;;;;;5075152;28;20024;-78
2021/10/14 01:31:40;;;;;;;112.15;45.80;;;1.80;99.90;;;;;;5073828;28;20017;-78
2021/10/14 01:34:08;;;;;;;100.88;41.25;;;1.80;99.90;;;;;;5073724;28;20029;-77
2021/10/14 01:36:33;;;;;;;54.05;30.02;;;1.80;99.90;;;;;;5075038;28;20008;-78
2021/10/14 01:38:59;;;;;;;69.22;33.35;;;1.70;99.90;;;;;;5074781;28;20474;-78
2021/10/14 01:41:25;;;;;;;56.38;25.77;;;1.80;99.90;;;;;;5073641;28;20162;-78
2021/10/14 01:43:51;;;;;;;56.67;23.70;;;1.70;99.90;;;;;;5073511;28;20021;-78
2021/10/14 01:46:16;;;;;;;44.35;24.40;;;1.70;99.90;;;;;;5073576;28;20093;-78
2021/10/14 01:48:42;;;;;;;105.40;28.02;;;1.60;99.90;;;;;;5074692;28;20494;-78
2021/10/14 01:51:10;;;;;;;68.80;24.23;;;1.60;99.90;;;;;;5074736;28;20017;-78
2021/10/14 01:53:36;;;;;;;65.03;24.10;;;1.50;99.90;;;;;;5073396;28;20028;-78
2021/10/14 01:56:02;;;;;;;58.15;24.25;;;1.50;99.90;;;;;;5073334;28;20120;-78
2021/10/14 01:58:28;;;;;;;67.07;28.65;;;1.50;99.90;;;;;;5073124;28;20045;-78
2021/10/14 02:00:54;;;;;;;71.78;28.60;;;1.50;99.90;;;;;;5073168;28;20102;-78
2021/10/14 02:03:20;;;;;;;99.15;34.10;;;1.50;99.90;;;;;;5073184;28;20072;-78
2021/10/14 02:05:46;;;;;;;104.30;31.50;;;1.50;99.90;;;;;;5074398;28;20096;-79
2021/10/14 02:08:12;;;;;;;89.72;30.10;;;1.50;99.90;;;;;;5072099;28;20452;-78
2021/10/14 02:10:37;;;;;;;74.28;27.13;;;1.50;99.90;;;;;;5074392;28;20032;-78
2021/10/14 02:13:04;;;;;;;78.85;25.60;;;1.50;99.90;;;;;;5074275;28;20381;-78
2021/10/14 02:15:30;;;;;;;64.25;25.13;;;1.40;99.90;;;;;;5072962;28;20028;-78
2021/10/14 02:17:56;;;;;;;104.22;31.90;;;1.40;99.90;;;;;;5073713;28;20049;-78
2021/10/14 02:20:22;;;;;;;78.88;27.70;;;1.20;99.90;;;;;;5072881;28;20056;-78
2021/10/14 02:22:47;;;;;;;47.33;22.52;;;1.20;99.90;;;;;;5072814;28;20048;-78
2021/10/14 02:25:14;;;;;;;51.75;24.50;;;1.20;99.90;;;;;;5072743;28;20051;-78
2021/10/14 02:27:40;;;;;;;114.78;30.25;;;1.20;99.90;;;;;;5072746;28;20017;-77
2021/10/14 02:30:07;;;;;;;61.75;23.50;;;1.20;99.90;;;;;;5074199;28;20073;-78
2021/10/14 02:32:33;;;;;;;70.75;25.02;;;1.20;99.90;;;;;;5072669;28;20008;-77
2021/10/14 02:34:59;;;;;;;124.95;26.98;;;1.10;99.90;;;;;;5072465;28;20052;-77
2021/10/14 02:37:26;;;;;;;94.22;28.35;;;1.10;99.90;;;;;;5073802;28;20032;-78
2021/10/14 02:39:51;;;;;;;72.68;19.20;;;1.10;99.90;;;;;;5072412;28;20031;-78
2021/10/14 02:42:17;;;;;;;46.85;18.17;;;1.10;99.90;;;;;;5072450;28;20024;-77
2021/10/14 02:44:43;;;;;;;33.50;17.38;;;1.00;99.90;;;;;;5072294;28;20027;-77
2021/10/14 02:47:09;;;;;;;49.45;20.17;;;1.00;99.90;;;;;;5073627;28;20024;-77
2021/10/14 02:49:35;;;;;;;71.72;20.98;;;1.10;99.90;;;;;;5073548;28;20017;-77
2021/10/14 02:52:01;;;;;;;50.95;20.20;;;1.10;99.90;;;;;;5072268;28;20051;-77
2021/10/14 02:54:27;;;;;;;40.92;18.90;;;1.10;99.90;;;;;;5072260;28;20021;-77
2021/10/14 02:56:52;;;;;;;62.33;17.63;;;1.10;99.90;;;;;;5073369;28;20492;-77
2021/10/14 02:59:18;;;;;;;40.78;17.40;;;1.20;99.90;;;;;;5073226;28;20041;-77
2021/10/14 03:01:43;;;;;;;45.97;16.00;;;1.20;99.90;;;;;;5088634;28;20060;-79
2021/10/14 03:04:09;;;;;;;46.15;17.13;;;1.20;99.90;;;;;;5084813;28;20548;-77
2021/10/14 03:06:35;;;;;;;73.32;20.70;;;1.20;99.90;;;;;;5075148;28;20477;-78
2021/10/14 03:09:01;;;;;;;63.38;18.83;;;1.10;99.90;;;;;;5084613;28;20500;-78
2021/10/14 03:11:26;;;;;;;69.18;19.13;;;1.10;99.90;;;;;;5072008;28;20028;-78
2021/10/14 03:13:52;;;;;;;50.58;17.98;;;1.10;99.90;;;;;;5071763;28;20059;-78
2021/10/14 03:16:18;;;;;;;48.60;19.27;;;1.10;99.90;;;;;;5092102;28;20032;-78
2021/10/14 03:18:43;;;;;;;80.43;19.95;;;1.10;99.90;;;;;;5091741;28;20038;-78
2021/10/14 03:21:09;;;;;;;95.63;23.50;;;1.00;99.90;;;;;;5092067;28;20027;-78
2021/10/14 03:23:35;;;;;;;69.63;20.38;;;1.00;99.90;;;;;;5093275;28;20404;-78
2021/10/14 03:26:04;;;;;;;78.88;23.08;;;1.00;99.90;;;;;;5093278;28;20030;-78
2021/10/14 03:28:30;;;;;;;86.63;21.58;;;1.00;99.90;;;;;;5093152;28;20032;-78
2021/10/14 03:30:57;;;;;;;62.53;27.98;;;1.00;99.90;;;;;;5091925;28;20069;-78
2021/10/14 03:33:23;;;;;;;148.77;43.50;;;1.00;99.90;;;;;;5091819;28;20039;-77
2021/10/14 03:35:49;;;;;;;68.25;21.33;;;1.00;99.90;;;;;;5093090;28;20024;-77
2021/10/14 03:38:14;;;;;;;78.82;24.05;;;1.00;99.90;;;;;;5078117;28;20498;-77
2021/10/14 03:40:40;;;;;;;39.97;17.65;;;1.00;99.90;;;;;;5072871;28;20024;-77
2021/10/14 03:43:06;;;;;;;59.70;20.80;;;1.00;99.90;;;;;;5071528;28;20020;-77
2021/10/14 03:45:31;;;;;;;90.20;23.10;;;1.00;99.90;;;;;;5072764;28;20032;-77
2021/10/14 03:47:57;;;;;;;58.72;16.77;;;1.00;99.90;;;;;;5071562;28;20474;-78
2021/10/14 03:50:23;;;;;;;57.47;19.45;;;1.00;99.90;;;;;;5072771;28;20023;-77
2021/10/14 03:52:48;;;;;;;77.95;20.45;;;1.00;99.90;;;;;;5072782;28;20134;-77
2021/10/14 03:55:14;;;;;;;125.57;20.80;;;1.00;99.90;;;;;;5071473;28;20024;-77
2021/10/14 03:57:40;;;;;;;113.72;19.50;;;0.90;99.90;;;;;;5071277;28;20401;-78
2021/10/14 04:00:07;;;;;;;153.63;28.98;;;0.90;99.90;;;;;;5071374;28;20024;-77
2021/10/14 04:02:33;;;;;;;82.57;23.40;;;0.90;99.90;;;;;;5071370;28;20020;-78
2021/10/14 04:04:58;;;;;;;128.93;23.45;;;0.90;99.90;;;;;;5071304;28;20024;-77
2021/10/14 04:07:24;;;;;;;149.73;23.75;;;0.90;99.90;;;;;;5072710;28;20092;-78
2021/10/14 04:09:49;;;;;;;111.45;20.95;;;0.90;99.90;;;;;;5071251;28;20028;-77
2021/10/14 04:12:15;;;;;;;99.45;20.90;;;0.80;99.90;;;;;;5071289;28;20020;-77
2021/10/14 04:14:41;;;;;;;54.65;20.27;;;0.80;99.90;;;;;;5071255;28;20020;-77
2021/10/14 04:17:06;;;;;;;72.97;20.13;;;0.80;99.90;;;;;;5071195;28;20017;-77
2021/10/14 04:19:32;;;;;;;32.03;14.05;;;0.90;99.90;;;;;;5072474;28;20482;-77
2021/10/14 04:21:58;;;;;;;54.78;16.65;;;0.90;99.90;;;;;;5072459;28;20385;-77
2021/10/14 04:24:26;;;;;;;75.72;20.58;;;0.90;99.90;;;;;;5072453;28;20021;-77
2021/10/14 04:26:52;;;;;;;56.47;19.63;;;1.00;99.90;;;;;;5071162;28;20032;-77
2021/10/14 04:29:17;;;;;;;74.63;22.85;;;1.00;99.90;;;;;;5071159;28;20035;-77
2021/10/14 04:31:43;;;;;;;42.40;18.35;;;1.00;99.90;;;;;;5074964;28;20488;-77
2021/10/14 04:34:09;;;;;;;87.38;20.55;;;1.00;99.90;;;;;;5076161;28;20049;-77
2021/10/14 04:36:38;;;;;;;49.70;13.57;;;1.00;99.90;;;;;;5074866;28;20481;-77
2021/10/14 04:39:05;;;;;;;94.75;19.88;;;1.00;99.90;;;;;;5075972;28;20103;-77
2021/10/14 04:41:31;;;;;;;59.90;16.67;;;1.10;99.90;;;;;;5076048;28;20013;-77
2021/10/14 04:43:57;;;;;;;56.40;17.08;;;1.10;99.90;;;;;;5075830;28;20036;-77
2021/10/14 04:46:22;;;;;;;83.68;20.85;;;1.10;99.90;;;;;;5075758;28;20051;-77
2021/10/14 04:48:48;;;;;;;81.57;21.45;;;1.10;99.90;;;;;;5074517;28;20557;-77
2021/10/14 04:51:14;;;;;;;98.95;23.92;;;1.10;99.90;;;;;;5075844;28;20099;-77
2021/10/14 04:53:39;;;;;;;81.00;20.42;;;1.10;99.90;;;;;;5075734;28;20044;-78
2021/10/14 04:56:05;;;;;;;81.47;20.88;;;1.10;99.90;;;;;;5075728;28;20066;-78
2021/10/14 04:58:31;;;;;;;104.22;25.58;;;1.10;99.90;;;;;;5074358;28;20075;-78
2021/10/14 05:00:57;;;;;;;196.10;39.05;;;1.10;99.90;;;;;;5075541;28;20048;-77
2021/10/14 05:03:23;;;;;;;133.68;32.28;;;1.20;99.90;;;;;;5074376;28;20016;-77
2021/10/14 05:05:49;;;;;;;112.13;31.65;;;1.20;99.90;;;;;;5075557;28;20127;-78
2021/10/14 05:08:14;;;;;;;115.75;33.08;;;1.20;99.90;;;;;;5075463;28;20033;-78
2021/10/14 05:10:41;;;;;;;115.22;32.85;;;1.20;99.90;;;;;;5074175;28;20016;-78
2021/10/14 05:13:07;;;;;;;85.20;30.15;;;1.20;99.90;;;;;;5079359;28;20560;-78
2021/10/14 05:15:33;;;;;;;98.65;29.10;;;1.30;99.90;;;;;;5095683;28;20035;-77
2021/10/14 05:17:58;;;;;;;139.05;36.97;;;1.30;99.90;;;;;;5091900;28;20024;-78
2021/10/14 05:20:24;;;;;;;82.88;28.10;;;1.40;99.90;;;;;;5078963;28;20016;-78
2021/10/14 05:22:50;;;;;;;97.18;28.75;;;1.40;99.90;;;;;;5072738;28;20201;-78
2021/10/14 05:25:16;;;;;;;156.45;43.25;;;1.40;99.90;;;;;;5072025;28;20020;-78
2021/10/14 05:27:42;;;;;;;179.88;39.70;;;1.50;99.90;;;;;;5084109;28;20044;-77
2021/10/14 05:30:08;;;;;;;169.57;43.65;;;1.50;99.90;;;;;;5080809;28;20099;-78
2021/10/14 05:32:33;;;;;;;140.98;33.92;;;1.50;99.90;;;;;;5091400;28;20041;-78
2021/10/14 05:34:59;;;;;;;147.77;33.70;;;1.50;99.90;;;;;;5087089;28;20195;-78
2021/10/14 05:37:27;;;;;;;184.52;39.50;;;1.60;99.90;;;;;;5073208;28;20024;-78
2021/10/14 05:39:53;;;;;;;159.98;35.90;;;1.60;99.90;;;;;;5074063;28;20028;-78
2021/10/14 05:42:18;;;;;;;120.10;36.15;;;1.60;99.90;;;;;;5081111;28;20037;-77
2021/10/14 05:44:44;;;;;;;158.23;34.75;;;1.70;99.90;;;;;;5072730;28;20031;-78
2021/10/14 05:47:09;;;;;;;148.23;35.70;;;1.70;99.90;;;;;;5072799;28;20056;-78
2021/10/14 05:49:35;;;;;;;149.95;39.88;;;1.70;99.90;;;;;;5071335;28;20032;-80
2021/10/14 05:52:01;;;;;;;170.18;40.97;;;1.80;99.90;;;;;;5072958;28;20058;-78
2021/10/14 05:54:26;;;;;;;348.65;61.88;;;1.80;99.90;;;;;;5073073;28;20029;-78
2021/10/14 05:56:52;;;;;;;176.20;42.95;;;1.90;99.90;;;;;;5070776;28;20032;-78
2021/10/14 05:59:18;;;;;;;206.85;44.50;;;1.90;99.90;;;;;;5073277;28;20123;-78
2021/10/14 06:01:44;;;;;;;270.33;57.35;;;1.90;99.90;;;;;;5071324;28;20053;-79
2021/10/14 06:04:09;;;;;;;243.27;45.00;;;2.00;99.90;;;;;;5088618;28;20021;-78
2021/10/14 06:06:35;;;;;;;215.55;43.35;;;2.00;99.90;;;;;;5072074;28;20048;-78
2021/10/14 06:09:01;;;;;;;184.05;40.45;;;2.00;99.90;;;;;;5072631;28;20021;-78
2021/10/14 06:11:26;;;;;;;101.45;32.70;;;2.10;99.90;;;;;;5071943;28;20048;-78
2021/10/14 06:13:52;;;;;;;307.48;54.53;;;2.10;99.90;;;;;;5070521;28;20046;-78
2021/10/14 06:16:18;;;;;;;184.93;38.60;;;2.20;99.90;;;;;;5067288;28;20581;-78
2021/10/14 06:18:43;;;;;;;139.57;34.97;;;2.20;99.90;;;;;;5072114;28;20028;-78
2021/10/14 06:21:09;;;;;;;217.48;40.50;;;2.10;99.90;;;;;;5086441;28;20020;-79
2021/10/14 06:23:35;;;;;;;135.70;33.83;;;2.20;99.90;;;;;;5090133;28;20473;-78
2021/10/14 06:26:00;;;;;;;215.85;43.35;;;2.20;99.90;;;;;;5090713;28;20016;-78
2021/10/14 06:28:26;;;;;;;75.20;23.52;;;2.30;99.90;;;;;;5089645;28;20039;-77
2021/10/14 06:30:52;;;;;;;206.35;37.42;;;2.30;99.90;;;;;;5081300;28;20312;-77
2021/10/14 06:33:18;;;;;;;216.77;37.92;;;2.40;99.90;;;;;;5071403;28;20028;-77
2021/10/14 06:35:44;;;;;;;128.45;30.23;;;2.40;99.90;;;;;;5074021;28;20031;-78
2021/10/14 06:38:09;;;;;;;125.75;30.17;;;2.40;99.90;;;;;;5080738;28;20044;-78
2021/10/14 06:40:35;;;;;;;191.10;34.58;;;2.40;99.90;;;;;;5070679;28;20086;-78
2021/10/14 06:43:01;;;;;;;215.15;35.42;;;2.40;99.90;;;;;;5070242;28;20211;-79
2021/10/14 06:45:26;;;;;;;188.77;35.60;;;2.40;99.90;;;;;;5086510;28;20496;-78
2021/10/14 06:47:52;;;;;;;107.65;30.75;;;2.40;99.90;;;;;;5086060;28;20043;-79
2021/10/14 06:50:18;;;;;;;134.63;29.25;;;2.40;99.90;;;;;;5085202;28;20024;-78
2021/10/14 06:52:44;;;;;;;192.85;33.70;;;2.40;99.90;;;;;;5067283;28;20097;-78
2021/10/14 06:55:10;;;;;;;157.38;30.25;;;2.40;99.90;;;;;;5067073;28;20017;-78
2021/10/14 06:57:36;;;;;;;172.73;31.88;;;2.40;99.90;;;;;;5066033;28;20505;-77
2021/10/14 07:00:07;;;;;;;161.30;31.70;;;2.50;99.90;;;;;;5084298;28;20028;-78
2021/10/14 07:02:33;;;;;;;87.85;25.85;;;2.50;99.90;;;;;;5074123;28;20036;-78
2021/10/14 07:04:59;;;;;;;176.40;35.80;;;2.50;99.90;;;;;;5088938;28;20032;-78
2021/10/14 07:07:24;;;;;;;100.88;27.42;;;2.60;99.90;;;;;;5081296;28;20077;-78
2021/10/14 07:09:50;;;;;;;122.50;28.40;;;2.70;99.90;;;;;;5069205;28;20017;-78
2021/10/14 07:12:16;;;;;;;137.20;34.38;;;2.80;99.90;;;;;;5071079;28;20037;-77
2021/10/14 07:14:43;;;;;;;130.90;29.67;;;2.80;99.90;;;;;;5066979;28;20024;-78
2021/10/14 07:17:09;;;;;;;132.85;30.33;;;2.80;99.90;;;;;;5065572;28;20039;-78
2021/10/14 07:19:36;;;;;;;137.57;35.30;;;2.80;99.90;;;;;;5070616;28;20123;-78
2021/10/14 07:22:03;;;;;;;115.22;27.48;;;2.90;99.90;;;;;;5071253;28;20066;-78
2021/10/14 07:24:32;;;;;;;101.30;25.08;;;2.90;99.90;;;;;;5070281;28;20027;-77
2021/10/14 07:26:58;;;;;;;110.70;26.45;;;2.90;99.90;;;;;;5069738;28;20035;-78
2021/10/14 07:29:25;;;;;;;96.60;26.20;;;2.90;99.90;;;;;;5069730;28;20016;-77
2021/10/14 07:31:51;;;;;;;115.18;25.42;;;2.90;99.90;;;;;;5077731;28;20718;-77
2021/10/14 07:34:17;;;;;;;78.30;24.58;;;3.00;99.90;;;;;;5091553;28;20020;-78
2021/10/14 07:36:42;;;;;;;111.97;24.48;;;3.10;99.90;;;;;;5090468;28;20123;-78
2021/10/14 07:39:08;;;;;;;123.10;29.80;;;3.00;99.90;;;;;;5090197;28;20028;-78
2021/10/14 07:41:34;;;;;;;87.03;26.20;;;3.10;99.90;;;;;;5089928;28;20370;-78
2021/10/14 07:44:00;;;;;;;113.70;27.73;;;3.10;99.90;;;;;;5091358;28;20078;-78
2021/10/14 07:46:27;;;;;;;120.97;28.83;;;3.10;99.90;;;;;;5091045;28;20362;-78
2021/10/14 07:48:53;;;;;;;108.88;29.40;;;3.10;99.90;;;;;;5090953;28;20032;-78
2021/10/14 07:51:19;;;;;;;75.10;25.10;;;3.20;99.90;;;;;;5091471;28;20021;-78
2021/10/14 07:53:45;;;;;;;73.10;26.63;;;3.20;99.90;;;;;;5089075;28;20477;-77
2021/10/14 07:56:10;;;;;;;108.57;29.35;;;3.20;99.90;;;;;;5090220;28;20028;-78
2021/10/14 07:58:36;;;;;;;109.85;34.35;;;3.30;99.90;;;;;;5088563;28;20126;-78
2021/10/14 08:01:02;;;;;;;100.53;33.40;;;3.40;99.90;;;;;;5088823;28;20055;-77
2021/10/14 08:03:28;;;;;;;114.30;38.13;;;3.50;99.90;;;;;;5071194;28;20036;-78
2021/10/14 08:05:53;;;;;;;86.18;29.55;;;3.50;99.90;;;;;;5070683;28;20029;-78
2021/10/14 08:08:20;;;;;;;63.97;24.08;;;3.60;99.90;;;;;;5075267;28;20032;-77
2021/10/14 08:10:45;;;;;;;78.65;26.17;;;3.60;99.90;;;;;;5072998;28;20027;-77
2021/10/14 08:13:14;;;;;;;72.78;28.08;;;3.60;99.90;;;;;;5073969;28;20021;-77
2021/10/14 08:15:50;;;;;;;84.18;29.67;;;3.60;99.90;;;;;;5076917;28;20039;-77
2021/10/14 08:18:17;;;;;;;90.45;30.25;;;3.60;99.90;;;;;;5073154;28;20044;-78
2021/10/14 08:20:43;;;;;;;97.05;33.33;;;3.60;99.90;;;;;;5078032;28;20024;-77
2021/10/14 08:23:09;;;;;;;89.80;34.97;;;3.60;99.90;;;;;;5078564;28;20029;-77
2021/10/14 08:25:35;;;;;;;104.65;33.78;;;3.70;99.90;;;;;;5072265;28;20102;-77
2021/10/14 08:28:01;;;;;;;136.07;40.28;;;3.70;99.90;;;;;;5071639;28;20112;-78
2021/10/14 08:30:26;;;;;;;120.53;35.97;;;3.60;99.90;;;;;;5074239;28;20044;-78
2021/10/14 08:32:52;;;;;;;94.45;33.20;;;3.60;99.90;;;;;;5090673;28;20036;-77
2021/10/14 08:35:19;;;;;;;111.38;36.85;;;3.70;99.90;;;;;;5094885;28;20511;-77
2021/10/14 08:37:45;;;;;;;98.45;35.05;;;3.80;99.90;;;;;;5092706;28;20031;-77
2021/10/14 08:40:11;;;;;;;105.30;39.67;;;3.80;99.90;;;;;;5094881;28;20528;-78
2021/10/14 08:42:39;;;;;;;100.10;35.38;;;3.90;99.90;;;;;;5094004;28;20040;-77
2021/10/14 08:45:07;;;;;;;112.57;40.15;;;3.90;99.90;;;;;;5083987;28;20514;-78
2021/10/14 08:47:34;;;;;;;99.55;35.83;;;4.00;99.90;;;;;;5071306;28;20051;-77
2021/10/14 08:50:01;;;;;;;152.70;43.65;;;3.90;99.90;;;;;;5078505;28;20015;-77
2021/10/14 08:52:27;;;;;;;96.43;36.00;;;3.90;99.90;;;;;;5077448;28;20039;-80
2021/10/14 08:54:53;;;;;;;98.03;35.83;;;3.90;99.90;;;;;;5080369;28;20529;-78
2021/10/14 08:57:19;;;;;;;102.18;35.33;;;4.00;99.90;;;;;;5079288;28;20478;-78
2021/10/14 08:59:45;;;;;;;76.78;31.50;;;4.10;99.90;;;;;;5074273;28;20086;-73
2021/10/14 09:02:11;;;;;;;83.05;32.95;;;4.20;99.90;;;;;;5081122;28;20028;-73
2021/10/14 09:04:48;;;;;;;79.53;31.17;;;4.30;99.90;;;;;;5073716;28;20041;-74
2021/10/14 09:07:22;;;;;;;76.35;31.45;;;4.30;99.90;;;;;;5077972;28;20021;-75
2021/10/14 09:09:48;;;;;;;84.55;31.40;;;4.40;99.90;;;;;;5076994;28;21148;-74
2021/10/14 09:12:16;;;;;;;88.30;32.92;;;4.40;99.90;;;;;;5073110;28;20029;-74
2021/10/14 09:15:03;;;;;;;92.10;30.73;;;4.50;99.90;;;;;;5074239;28;20055;-74
2021/10/14 09:17:38;;;;;;;76.65;32.90;;;4.50;99.90;;;;;;5083258;28;20031;-74
2021/10/14 09:20:40;;;;;;;78.03;30.60;;;4.60;99.90;;;;;;5091364;28;20051;-74
2021/10/14 09:23:11;;;;;;;83.65;32.50;;;4.70;99.90;;;;;;5086113;28;20127;-74
2021/10/14 09:25:47;;;;;;;71.95;29.52;;;4.70;99.90;;;;;;5084264;28;20081;-74
2021/10/14 09:28:24;;;;;;;72.18;25.70;;;4.70;99.90;;;;;;5090734;28;20036;-74
2021/10/14 09:30:59;;;;;;;69.45;29.38;;;4.80;99.90;;;;;;5087210;28;20417;-74
2021/10/14 09:33:38;;;;;;;79.65;30.60;;;4.90;99.90;;;;;;5082588;28;20043;-74
2021/10/14 09:36:21;;;;;;;88.82;35.33;;;5.00;99.90;;;;;;5086826;28;20028;-74
2021/10/14 09:39:02;;;;;;;81.38;36.95;;;5.00;99.90;;;;;;5090318;28;20056;-74
2021/10/14 09:41:31;;;;;;;85.40;32.35;;;5.00;99.90;;;;;;5091398;28;20020;-74
2021/10/14 09:44:09;;;;;;;76.18;31.77;;;5.00;99.90;;;;;;5091476;28;20431;-74
2021/10/14 09:46:46;;;;;;;67.88;29.58;;;5.10;99.90;;;;;;5090372;28;20522;-75
2021/10/14 09:49:21;;;;;;;79.22;31.25;;;5.10;99.90;;;;;;5091302;28;20025;-75
2021/10/14 09:51:47;;;;;;;77.57;32.08;;;5.20;99.90;;;;;;5080947;28;20024;-75
2021/10/14 09:54:13;;;;;;;77.50;31.95;;;5.20;99.90;;;;;;5073141;28;20040;-76
2021/10/14 09:56:39;;;;;;;70.70;32.00;;;5.20;99.90;;;;;;5076345;28;20017;-76
2021/10/14 09:59:05;;;;;;;81.53;31.90;;;5.30;99.90;;;;;;5026188;28;1272691;-76
2021/10/14 10:01:34;;;;;;;96.43;38.78;;;5.30;99.90;;;;;;5080409;28;20482;-76
2021/10/14 10:04:01;;;;;;;95.00;36.03;;;5.20;99.90;;;;;;5078659;28;20036;-75
2021/10/14 10:06:30;;;;;;;102.25;39.40;;;5.30;99.90;;;;;;5072933;28;20028;-75
2021/10/14 10:08:59;;;;;;;86.35;35.70;;;5.40;99.90;;;;;;5076699;28;20493;-75
2021/10/14 10:11:28;;;;;;;84.75;34.78;;;5.40;99.90;;;;;;5072118;28;20046;-75
2021/10/14 10:13:56;;;;;;;70.15;33.83;;;5.30;99.90;;;;;;5071986;28;20024;-75
2021/10/14 10:16:24;;;;;;;75.43;32.72;;;5.40;99.90;;;;;;5083169;28;20020;-75
2021/10/14 10:18:59;;;;;;;84.20;33.95;;;5.50;99.90;;;;;;5073720;28;20049;-74
2021/10/14 10:21:31;;;;;;;79.97;32.80;;;5.70;99.90;;;;;;5076096;28;20035;-76
2021/10/14 10:24:03;;;;;;;66.32;28.17;;;5.80;99.90;;;;;;5070653;28;20409;-75
2021/10/14 10:29:02;;;;;;;69.78;29.60;;;6.00;99.90;;;;;;5090167;28;20393;-75
2021/10/14 10:31:49;;;;;;;59.78;25.08;;;6.00;99.90;;;;;;5077680;28;20016;-75
2021/10/14 10:37:17;;;;;;;53.50;26.48;;;6.30;99.90;;;;;;5074732;28;20062;-76
2021/10/14 10:40:09;;;;;;;66.35;30.67;;;6.40;99.90;;;;;;5076086;28;20500;-76
2021/10/14 10:42:45;;;;;;;73.72;35.40;;;6.50;99.90;;;;;;5090807;28;20061;-76
2021/10/14 10:45:21;;;;;;;50.00;24.33;;;6.70;99.90;;;;;;5077318;28;20041;-76
2021/10/14 10:47:57;;;;;;;51.08;24.40;;;6.80;99.90;;;;;;5086986;28;20252;-75
2021/10/14 10:50:29;;;;;;;53.30;25.45;;;7.00;99.90;;;;;;5071124;28;20029;-76
2021/10/14 10:53:08;;;;;;;53.17;26.20;;;7.20;99.90;;;;;;5077334;28;20028;-76
2021/10/14 10:55:51;;;;;;;43.00;23.15;;;7.30;99.90;;;;;;5073481;28;20082;-76
2021/10/14 10:58:29;;;;;;;39.33;21.20;;;7.40;99.90;;;;;;5072093;28;20032;-76
2021/10/14 11:00:54;;;;;;;38.78;22.48;;;7.50;99.90;;;;;;5073423;28;20036;-77
2021/10/14 11:03:23;;;;;;;49.72;27.05;;;7.60;99.90;;;;;;5072026;28;20031;-76
2021/10/14 11:05:48;;;;;;;48.70;23.98;;;7.70;99.90;;;;;;5078546;28;20024;-77
2021/10/14 11:08:21;;;;;;;45.75;24.95;;;7.80;99.90;;;;;;5083756;28;20386;-77
2021/10/14 11:10:58;;;;;;;39.97;22.65;;;7.90;99.90;;;;;;5076387;28;20017;-76
2021/10/14 11:13:27;;;;;;;49.08;25.17;;;8.00;99.90;;;;;;5078006;28;20470;-77
2021/10/14 11:15:55;;;;;;;46.33;24.15;;;8.10;99.90;;;;;;5079668;28;20012;-77
2021/10/14 11:18:24;;;;;;;46.83;23.52;;;8.30;99.90;;;;;;5080659;28;20430;-77
2021/10/14 11:20:55;;;;;;;38.90;22.30;;;8.30;99.90;;;;;;5074170;28;20024;-77
2021/10/14 11:23:23;;;;;;;37.13;20.83;;;8.30;99.90;;;;;;5072559;28;20024;-77
2021/10/14 11:26:01;;;;;;;36.40;20.92;;;8.40;99.90;;;;;;5070696;28;20501;-76
2021/10/14 11:28:27;;;;;;;40.58;20.75;;;8.30;99.90;;;;;;5071790;28;20032;-77
2021/10/14 11:30:58;;;;;;;34.40;19.70;;;8.40;99.90;;;;;;5071771;28;20028;-77
2021/10/14 11:33:33;;;;;;;35.13;18.45;;;8.50;99.90;;;;;;5071728;28;20024;-77
2021/10/14 11:36:06;;;;;;;32.88;19.05;;;8.60;99.90;;;;;;5071683;28;20561;-77
2021/10/14 11:38:33;;;;;;;29.95;17.90;;;8.80;99.90;;;;;;5071629;28;20028;-77
2021/10/14 11:41:01;;;;;;;34.00;17.25;;;9.00;99.90;;;;;;5071486;28;20070;-77
2021/10/14 11:43:30;;;;;;;32.72;17.20;;;9.00;99.90;;;;;;5071570;28;20086;-77
2021/10/14 11:45:58;;;;;;;27.70;16.23;;;9.20;99.90;;;;;;5072853;28;20474;-77
2021/10/14 11:48:28;;;;;;;24.42;14.77;;;9.30;99.90;;;;;;5084849;28;20036;-77
2021/10/14 11:51:02;;;;;;;25.90;14.00;;;9.40;99.90;;;;;;5089167;28;20441;-77
2021/10/14 11:53:28;;;;;;;19.00;10.63;;;9.50;99.90;;;;;;5089769;28;20035;-77
2021/10/14 11:56:03;;;;;;;20.55;11.82;;;9.50;99.90;;;;;;5091595;28;20028;-77
2021/10/14 11:58:28;;;;;;;18.55;11.23;;;9.60;99.90;;;;;;5085899;28;20531;-77
2021/10/14 12:00:58;;;;;;;18.23;10.10;;;9.70;99.90;;;;;;5074915;28;20024;-77
2021/10/14 12:03:24;;;;;;;16.30;9.70;;;9.80;99.90;;;;;;5071857;28;20108;-77
2021/10/14 12:05:50;;;;;;;18.38;10.30;;;9.90;99.90;;;;;;5069245;28;20028;-77
2021/10/14 12:08:18;;;;;;;28.20;12.15;;;9.90;99.90;;;;;;5072152;28;20029;-77
2021/10/14 12:10:48;;;;;;;17.08;9.75;;;9.90;99.90;;;;;;5074232;28;20492;-77
2021/10/14 12:13:15;;;;;;;9.25;7.05;;;9.90;99.90;;;;;;5069682;28;20040;-77
2021/10/14 12:15:41;;;;;;;13.32;7.80;;;9.80;91.40;;;;;;5070701;28;20020;-78
2021/10/14 12:18:09;;;;;;;12.15;6.47;;;9.80;89.00;;;;;;5073139;28;20040;-77
2021/10/14 12:20:35;;;;;;;12.18;6.78;;;9.70;89.00;;;;;;5081436;28;20028;-78
2021/10/14 12:23:06;;;;;;;10.75;6.55;;;9.80;88.90;;;;;;5091994;28;20104;-78
2021/10/14 12:25:35;;;;;;;11.48;6.40;;;10.00;88.30;;;;;;5090728;28;20020;-77
2021/10/14 12:28:02;;;;;;;8.57;6.35;;;10.10;86.40;;;;;;5092008;28;20490;-78
2021/10/14 12:30:37;;;;;;;23.92;10.65;;;10.20;82.00;;;;;;5073931;28;20489;-77
2021/10/14 12:33:12;;;;;;;14.38;7.53;;;10.20;80.50;;;;;;5075561;28;20044;-78
2021/10/14 12:35:55;;;;;;;6.47;5.18;;;10.20;82.30;;;;;;5073630;28;20454;-77
2021/10/14 12:38:22;;;;;;;7.93;5.50;;;10.30;79.90;;;;;;5088318;28;20115;-77
2021/10/14 12:41:01;;;;;;;6.57;5.10;;;10.40;78.40;;;;;;5087066;28;20425;-77